Friars Point, MS

6:42 AM CDT on July 31, 2014 (GMT -0500)
West Memphis Municipal (KAWM) Elev 213 ft | 35.14 °N, 90.23 °W | Change Station

Current weather conditions updated 49 minutes ago

Overcast
Overcast
69 °F
Feels Like 69 °F
N
4
Wind Variable Wind from West

Today is forecast to be Cooler than yesterday. A few morning showers.

Today
High -- | Low -- °F
--% Chance of Precip.
Yesterday
High -- | Low -- °F
Precip. -- in
6:12 AM 8:04 PM
Waxing Crescent, 18% visible
Pressure 30.08 in
Visibility 7.0 miles
Clouds Scattered Clouds 4000 ft
Overcast 5000 ft
Dew Point 69 °F
Humidity 100%
Rainfall 0.00 in
Snow Depth Not available.
UV 0 out of 12
Pollen 4.50 out of 12
Air Quality Not available.
Flu Activity Not available.
METAR KAWM 311053Z AUTO 26003KT 7SM SCT040 OVC050 21/21 A3009 RMK AO2 SLP184 T02060206 $

More Conditions Fewer Conditions

Pressure 30.08 in
Visibility 7.0 miles
Clouds Scattered Clouds 4000 ft
Overcast 5000 ft
Dew Point 69 °F
Humidity 100%
Rainfall 0.00 in
Snow Depth Not available.
UV 0 out of 12
Pollen 4.50 out of 12
Air Quality Not available.
Flu Activity Not available.
METAR KAWM 311053Z AUTO 26003KT 7SM SCT040 OVC050 21/21 A3009 RMK AO2 SLP184 T02060206 $

More Conditions Fewer Conditions

10-Day Weather Forecast

Almanac

Astronomy

Jul. 31, 2014 Rise Set
Actual Time 6:12 AM CDT 8:04 PM CDT
Civil Twilight 5:44 AM CDT 8:32 PM CDT
Nautical Twilight 5:11 AM CDT 9:05 PM CDT
Astronomical Twilight 4:35 AM CDT 9:41 PM CDT
Moon 10:26 AM CDT 10:32 PM CDT
Length of Visible Light 14h 47m
Length of Day
13h 52m
Tomorrow will be 1m 35s shorter.
Waxing Crescent, 18% of the Moon is Illuminated
Today
Waxing Crescent
Aug 3
First Quarter
Aug 10
Full
Aug 17
Last Quarter
Aug 25
New

Today's Extremes

State Highs State Lows

Community

WunderPhotos

Upload Photos

1,739,296 photos uploaded!

WunderBlogs® & News

Nearby

Snow Depth

Station Depth Elevation
No new snow has been reported.

Earthquake Activity

City Distance Mag. Time & Date
No recent earthquake activity has been reported nearby.
Minimum magnitude displayed is 2.5.

Coastal Water Temperatures

Place Temperature
No Stations Reporting

Nearby Weather Stations

There are no personal weather stations in this area.